Home   Weather   Finland   Lappeenranta   Past weeks
Flag for Finland

Past Weather in Lappeenranta, Finland — Yesterday and Last 2 Weeks

Currently: 52 °F. Passing clouds. (Weather station: Lappeenranta, Finland). See more current weather

Past Weather in Lappeenranta — Graph

°F

Lappeenranta Temperature Yesterday

Maximum temperature yesterday: 59 °F (at 5:20 pm)
Minimum temperature yesterday: 32 °F (at 4:50 am)
Average temperature yesterday: 47 °F

High & Low Weather Summary for the Past Weeks

 TemperatureHumidityPressure
High63 °F (Apr 12, 3:20 pm)100% (Apr 5, 5:20 am)30.48 "Hg (Apr 5, 5:20 am)
Low25 °F (Apr 8, 2:20 am)19% (Apr 16, 4:50 pm)28.94 "Hg (Apr 5, 10:20 am)
Average39 °F65%29.89 "Hg
* Reported Apr 4 11:20 am — Apr 19 11:50 am, Lappeenranta. Weather by CustomWeather, © 2021

Note: Actual official high and low records may vary slightly from our data, if they occured in-between our weather recording intervals... More about our weather records

Lappeenranta Weather History for the Previous 24 Hours

Scroll right to see more
 ConditionsComfort  
Time TempWeatherWind HumidityBarometerVisibility
11:50 am
Mon, Apr 19
50 °FPassing clouds.10 mph37%30.42 "HgN/A
11:20 am48 °FSunny.10 mph40%30.42 "Hg10 mi
10:50 am46 °FSunny.9 mph43%30.42 "Hg10 mi
10:20 am46 °FPassing clouds.8 mph43%30.45 "HgN/A
9:50 am45 °FSunny.8 mph49%30.42 "Hg10 mi
9:20 am43 °FPassing clouds.7 mph53%30.42 "HgN/A
8:50 am43 °FSunny.7 mph57%30.42 "Hg10 mi
8:20 am41 °FSunny.7 mph61%30.42 "Hg10 mi
7:50 am39 °FSunny.7 mph70%30.42 "Hg10 mi
7:20 am37 °FSunny.5 mph75%30.42 "Hg10 mi
6:50 am36 °FSunny.5 mph75%30.45 "Hg10 mi
6:20 am34 °FSunny.3 mph81%30.42 "Hg10 mi
5:50 am32 °FSunny.5 mph80%30.42 "Hg10 mi
5:20 am34 °FClear.3 mph81%30.42 "Hg10 mi
4:50 am32 °FClear.5 mph80%30.42 "Hg10 mi
4:20 am34 °FClear.5 mph75%30.45 "Hg10 mi
3:50 am36 °FClear.5 mph75%30.45 "Hg10 mi
3:20 am36 °FClear.3 mph70%30.42 "Hg10 mi
2:50 am36 °FClear.6 mph70%30.42 "Hg10 mi
2:20 am39 °FClear.6 mph61%30.45 "Hg10 mi
1:50 am41 °FClear.5 mph57%30.45 "Hg10 mi
1:20 am41 °FClear.6 mph57%30.45 "Hg10 mi
12:50 am39 °FClear.7 mph56%30.45 "Hg10 mi
12:20 am41 °FClear.6 mph53%30.45 "Hg10 mi
11:50 pm
Sun, Apr 18
41 °FClear.5 mph53%30.42 "Hg10 mi
11:20 pm43 °FClear.6 mph49%30.42 "Hg10 mi
10:50 pm45 °FClear.5 mph46%30.42 "Hg10 mi
10:20 pm43 °FClear.6 mph49%30.42 "Hg10 mi
9:50 pm43 °FClear.5 mph49%30.42 "Hg10 mi
9:20 pm48 °FClear.5 mph40%30.42 "Hg10 mi
8:50 pm48 °FClear.6 mph40%30.39 "Hg10 mi
8:20 pm52 °FSunny.3 mph32%30.39 "Hg10 mi
7:50 pm54 °FPassing clouds.5 mph30%30.39 "HgN/A
7:20 pm54 °FPassing clouds.7 mph30%30.39 "HgN/A
6:50 pm55 °FPassing clouds.9 mph28%30.39 "HgN/A
6:20 pm55 °FPassing clouds.10 mph26%30.39 "HgN/A
5:50 pm57 °FPassing clouds.9 mph25%30.39 "HgN/A
5:20 pm59 °FPassing clouds.10 mph25%30.39 "HgN/A
4:50 pm57 °FSunny.13 mph25%30.39 "Hg10 mi
4:20 pm57 °FPassing clouds.12 mph25%30.39 "HgN/A
3:50 pm57 °FSunny.13 mph27%30.39 "Hg10 mi
3:20 pm57 °FPassing clouds.13 mph25%30.42 "HgN/A
2:50 pm57 °FSunny.13 mph27%30.42 "Hg10 mi
2:20 pm57 °FPassing clouds.13 mph27%30.42 "HgN/A
1:50 pm55 °FPassing clouds.12 mph28%30.42 "HgN/A
1:20 pm55 °FPassing clouds.13 mph28%30.42 "HgN/A
Weather by CustomWeather, © 2021

See weather overview